createdAt,value
2019-01-23T00:01:23.663Z,99.73
2019-01-23T00:03:51.250Z,95.83
2019-01-23T00:06:17.984Z,86.73
2019-01-23T00:08:44.614Z,88.50
2019-01-23T00:11:12.009Z,72.20
2019-01-23T00:13:38.748Z,97.63
2019-01-23T00:16:05.542Z,77.77
2019-01-23T00:18:32.739Z,77.17
2019-01-23T00:20:59.478Z,90.13
2019-01-23T00:23:26.214Z,83.73
2019-01-23T00:25:53.111Z,89.13
2019-01-23T00:28:19.846Z,87.97
2019-01-23T00:30:46.872Z,91.80
2019-01-23T00:33:13.589Z,88.67
2019-01-23T00:35:40.332Z,97.03
2019-01-23T00:38:07.121Z,89.77
2019-01-23T00:40:34.229Z,84.97
2019-01-23T00:43:01.056Z,92.77
2019-01-23T00:45:27.884Z,103.93
2019-01-23T00:47:54.825Z,96.43
2019-01-23T00:50:21.558Z,91.97
2019-01-23T00:52:48.384Z,89.03
2019-01-23T00:55:15.204Z,103.57
2019-01-23T00:57:42.041Z,99.63
2019-01-23T01:00:28.458Z,88.60
2019-01-23T01:02:55.305Z,97.93
2019-01-23T01:05:22.140Z,97.27
2019-01-23T01:07:49.031Z,95.07
2019-01-23T01:10:16.251Z,83.93
2019-01-23T01:12:43.267Z,100.60
2019-01-23T01:15:13.476Z,88.50
2019-01-23T01:17:39.313Z,70.57
2019-01-23T01:20:07.746Z,88.27
2019-01-23T01:22:34.982Z,89.13
2019-01-23T01:25:01.729Z,88.10
2019-01-23T01:27:28.589Z,91.23
2019-01-23T01:29:55.665Z,79.70
2019-01-23T01:32:22.494Z,93.93
2019-01-23T01:34:49.224Z,90.47
2019-01-23T01:37:16.363Z,79.93
2019-01-23T01:39:43.235Z,81.70
2019-01-23T01:42:09.970Z,68.97
2019-01-23T01:44:36.876Z,94.67
2019-01-23T01:47:03.612Z,77.33
2019-01-23T01:49:30.419Z,87.57
2019-01-23T01:51:57.353Z,91.00
2019-01-23T01:54:24.079Z,95.83
2019-01-23T01:56:50.818Z,91.63
2019-01-23T01:59:17.854Z,78.10
2019-01-23T02:01:44.593Z,80.17
2019-01-23T02:04:11.459Z,82.37
2019-01-23T02:06:38.258Z,84.00
2019-01-23T02:09:07.258Z,87.70
2019-01-23T02:11:34.276Z,70.73
2019-01-23T02:14:01.473Z,55.37
2019-01-23T02:16:28.206Z,74.67
2019-01-23T02:18:54.845Z,87.37
2019-01-23T02:21:21.707Z,92.90
2019-01-23T02:23:48.586Z,86.40
2019-01-23T02:26:15.315Z,87.40
2019-01-23T02:28:42.573Z,74.57
2019-01-23T02:31:09.442Z,81.00
2019-01-23T02:33:36.444Z,81.00
2019-01-23T02:36:03.425Z,77.13
2019-01-23T02:38:30.163Z,93.13
2019-01-23T02:40:57.301Z,92.57
2019-01-23T02:43:24.005Z,100.23
2019-01-23T02:45:50.734Z,82.07
2019-01-23T02:48:17.709Z,89.93
2019-01-23T02:50:44.822Z,87.53
2019-01-23T02:53:11.571Z,65.73
2019-01-23T02:55:38.323Z,84.77
2019-01-23T02:58:05.177Z,90.03
2019-01-23T03:00:32.691Z,86.37
2019-01-23T03:02:59.525Z,88.97
2019-01-23T03:05:26.336Z,84.90
2019-01-23T03:07:53.072Z,68.63
2019-01-23T03:10:20.418Z,64.27
2019-01-23T03:12:47.553Z,84.33
2019-01-23T03:15:55.719Z,89.20
2019-01-23T03:18:22.581Z,89.00
2019-01-23T03:20:49.320Z,91.07
2019-01-23T03:23:16.061Z,94.90
2019-01-23T03:25:42.923Z,61.30
2019-01-23T03:28:09.659Z,102.77
2019-01-23T03:30:36.305Z,95.60
2019-01-23T03:33:03.177Z,85.83
2019-01-23T03:35:30.563Z,96.03
2019-01-23T03:37:57.312Z,106.57
2019-01-23T03:40:24.109Z,101.43
2019-01-23T03:42:50.860Z,95.90
2019-01-23T03:45:58.704Z,101.97
2019-01-23T03:48:25.437Z,98.70
2019-01-23T03:50:52.173Z,89.67
2019-01-23T03:53:19.176Z,73.20
2019-01-23T03:55:45.937Z,95.27
2019-01-23T03:58:13.063Z,101.67
2019-01-23T04:00:40.217Z,110.80
2019-01-23T04:03:06.979Z,92.53
2019-01-23T04:05:34.182Z,104.40
2019-01-23T04:08:01.057Z,98.33
2019-01-23T04:10:27.810Z,79.00
2019-01-23T04:12:54.545Z,111.83
2019-01-23T04:15:21.452Z,74.37
2019-01-23T04:17:48.190Z,85.17
2019-01-23T04:20:16.825Z,92.50
2019-01-23T04:22:43.863Z,78.53
2019-01-23T04:25:10.989Z,102.30
2019-01-23T04:27:37.842Z,89.50
2019-01-23T04:30:06.502Z,78.47
2019-01-23T04:32:33.234Z,103.17
2019-01-23T04:34:59.977Z,84.97
2019-01-23T04:37:27.067Z,103.33
2019-01-23T04:39:54.088Z,108.07
2019-01-23T04:42:20.826Z,113.50
2019-01-23T04:44:47.682Z,117.90
2019-01-23T04:47:14.410Z,76.03
2019-01-23T04:49:41.170Z,79.43
2019-01-23T04:52:27.597Z,96.53
2019-01-23T04:54:54.308Z,97.60
2019-01-23T04:57:21.177Z,81.50
2019-01-23T04:59:47.959Z,87.07
2019-01-23T05:02:14.687Z,91.43
2019-01-23T05:04:41.315Z,95.53
2019-01-23T05:07:08.075Z,105.80
2019-01-23T05:09:34.817Z,76.07
2019-01-23T05:12:01.546Z,95.00
2019-01-23T05:14:28.472Z,82.80
2019-01-23T05:16:55.239Z,96.33
2019-01-23T05:19:22.322Z,86.03
2019-01-23T05:21:49.111Z,90.20
2019-01-23T05:24:15.971Z,91.27
2019-01-23T05:26:43.025Z,89.20
2019-01-23T05:29:09.813Z,87.03
2019-01-23T05:31:36.587Z,102.03
2019-01-23T05:34:10.769Z,76.50
2019-01-23T05:36:37.570Z,87.53
2019-01-23T05:39:07.179Z,83.17
2019-01-23T05:41:33.811Z,96.70
2019-01-23T05:44:00.956Z,82.03
2019-01-23T05:46:27.688Z,88.63
2019-01-23T05:48:54.438Z,79.53
2019-01-23T05:51:21.529Z,97.13
2019-01-23T05:53:48.162Z,101.33
2019-01-23T05:56:15.100Z,95.77
2019-01-23T05:58:42.036Z,99.10
2019-01-23T06:01:09.209Z,88.10
2019-01-23T06:03:36.603Z,105.77
2019-01-23T06:06:03.802Z,100.03
2019-01-23T06:08:30.707Z,105.53
2019-01-23T06:10:57.443Z,105.20
2019-01-23T06:13:24.724Z,114.20
2019-01-23T06:15:51.566Z,111.33
2019-01-23T06:18:18.188Z,105.30
2019-01-23T06:20:46.956Z,107.60
2019-01-23T06:23:14.115Z,122.37
2019-01-23T06:26:00.542Z,99.20
2019-01-23T06:28:27.402Z,87.57
2019-01-23T06:30:54.199Z,109.67
2019-01-23T06:33:21.024Z,109.37
2019-01-23T06:35:47.891Z,113.47
2019-01-23T06:38:14.528Z,107.47
2019-01-23T06:40:41.592Z,121.10
2019-01-23T06:43:08.340Z,108.73
2019-01-23T06:45:35.075Z,98.97
2019-01-23T06:48:01.871Z,91.43
2019-01-23T06:50:28.505Z,106.83
2019-01-23T06:52:55.232Z,114.73
2019-01-23T06:55:22.104Z,117.67
2019-01-23T06:57:49.013Z,109.17
2019-01-23T07:00:18.664Z,85.30
2019-01-23T07:02:45.698Z,119.60
2019-01-23T07:05:12.537Z,84.37
2019-01-23T07:07:39.276Z,113.40
2019-01-23T07:10:48.366Z,114.03
2019-01-23T07:13:15.400Z,127.77
2019-01-23T07:15:42.174Z,112.40
2019-01-23T07:18:08.963Z,118.10
2019-01-23T07:20:35.775Z,131.47
2019-01-23T07:23:02.503Z,121.53
2019-01-23T07:25:29.493Z,109.00
2019-01-23T07:27:56.236Z,126.77
2019-01-23T07:30:42.938Z,139.90
2019-01-23T07:33:09.970Z,125.43
2019-01-23T07:35:36.699Z,139.03
2019-01-23T07:38:03.618Z,141.90
2019-01-23T07:40:30.252Z,139.13
2019-01-23T07:42:56.995Z,147.37
2019-01-23T07:45:24.028Z,143.60
2019-01-23T07:47:50.855Z,132.27
2019-01-23T07:50:17.604Z,136.47
2019-01-23T07:52:44.584Z,149.07
2019-01-23T07:55:13.065Z,142.83
2019-01-23T07:57:39.894Z,161.87
2019-01-23T08:00:09.639Z,128.50
2019-01-23T08:02:36.369Z,152.90
2019-01-23T08:05:44.596Z,127.37
2019-01-23T08:08:53.485Z,162.43
2019-01-23T08:11:20.325Z,151.27
2019-01-23T08:13:47.149Z,162.80
2019-01-23T08:16:14.005Z,161.10
2019-01-23T08:18:40.948Z,160.87
2019-01-23T08:21:07.683Z,164.27
2019-01-23T08:23:34.428Z,148.77
2019-01-23T08:26:01.288Z,154.23
2019-01-23T08:28:28.046Z,181.07
2019-01-23T08:30:54.875Z,179.57
2019-01-23T08:33:21.761Z,168.37
2019-01-23T08:35:48.638Z,181.40
2019-01-23T08:38:15.378Z,172.00
2019-01-23T08:40:42.248Z,153.37
2019-01-23T08:43:08.989Z,179.57
2019-01-23T08:45:36.043Z,182.40
2019-01-23T08:48:03.015Z,171.23
2019-01-23T08:50:50.878Z,155.43
2019-01-23T08:53:17.785Z,159.43
2019-01-23T08:55:44.516Z,167.87
2019-01-23T08:58:11.268Z,172.87
2019-01-23T09:00:51.352Z,170.20
2019-01-23T09:03:18.073Z,181.87
2019-01-23T09:05:44.847Z,194.90
2019-01-23T09:08:12.031Z,170.60
2019-01-23T09:10:38.862Z,130.10
2019-01-23T09:13:05.923Z,161.30
2019-01-23T09:15:33.071Z,186.07
2019-01-23T09:18:00.188Z,192.23
2019-01-23T09:20:27.362Z,203.70
2019-01-23T09:22:54.546Z,184.77
2019-01-23T09:25:22.218Z,199.17
2019-01-23T09:27:49.080Z,220.77
2019-01-23T09:30:37.010Z,201.20
2019-01-23T09:33:29.441Z,222.73
2019-01-23T09:36:35.382Z,172.00
2019-01-23T09:39:41.244Z,179.30
2019-01-23T09:42:47.253Z,200.00
2019-01-23T09:45:53.118Z,193.20
2019-01-23T09:48:43.546Z,194.10
2019-01-23T09:51:49.692Z,196.30
2019-01-23T09:54:16.740Z,189.23
2019-01-23T09:56:46.753Z,191.73
2019-01-23T09:59:13.505Z,206.20
2019-01-23T10:01:53.156Z,202.27
2019-01-23T10:04:20.123Z,182.07
2019-01-23T10:06:46.962Z,147.10
2019-01-23T10:09:13.945Z,198.73
2019-01-23T10:11:40.787Z,167.50
2019-01-23T10:14:07.623Z,192.10
2019-01-23T10:16:34.635Z,227.03
2019-01-23T10:19:01.750Z,172.43
2019-01-23T10:21:28.594Z,219.33
2019-01-23T10:23:55.304Z,168.17
2019-01-23T10:26:22.042Z,208.07
2019-01-23T10:28:49.122Z,189.43
2019-01-23T10:31:15.952Z,215.37
2019-01-23T10:33:43.193Z,177.00
2019-01-23T10:36:10.259Z,189.30
2019-01-23T10:38:37.184Z,219.40
2019-01-23T10:41:03.940Z,219.53
2019-01-23T10:43:30.788Z,223.67
2019-01-23T10:45:57.650Z,233.27
2019-01-23T10:48:24.797Z,202.93
2019-01-23T10:50:51.521Z,225.13
2019-01-23T10:53:18.617Z,188.27
2019-01-23T10:55:45.355Z,160.30
2019-01-23T10:58:12.191Z,198.10
2019-01-23T11:03:18.411Z,156.43
2019-01-23T11:05:45.248Z,181.43
2019-01-23T11:08:12.126Z,194.97
2019-01-23T11:10:39.364Z,181.70
2019-01-23T11:13:47.130Z,211.23
2019-01-23T11:16:13.886Z,176.47
2019-01-23T11:18:40.626Z,177.00
2019-01-23T11:21:07.860Z,184.47
2019-01-23T11:23:34.691Z,157.67
2019-01-23T11:26:01.531Z,194.20
2019-01-23T11:28:28.406Z,178.23
2019-01-23T11:30:55.371Z,178.77
2019-01-23T11:33:22.125Z,171.60
2019-01-23T11:35:48.961Z,173.63
2019-01-23T11:38:15.873Z,190.80
2019-01-23T11:40:42.860Z,181.43
2019-01-23T11:43:09.601Z,171.27
2019-01-23T11:45:37.036Z,137.30
2019-01-23T11:48:04.196Z,193.73
2019-01-23T11:50:31.221Z,151.83
2019-01-23T11:52:58.126Z,195.83
2019-01-23T11:55:24.868Z,154.00
2019-01-23T11:57:51.716Z,169.00
2019-01-23T12:00:20.451Z,153.87
2019-01-23T12:02:47.376Z,177.67
2019-01-23T12:05:26.585Z,131.33
2019-01-23T12:07:53.738Z,167.87
2019-01-23T12:10:21.934Z,140.17
2019-01-23T12:12:48.828Z,167.43
2019-01-23T12:15:17.730Z,167.90
2019-01-23T12:17:44.577Z,153.33
2019-01-23T12:20:33.167Z,171.27
2019-01-23T12:22:59.931Z,175.87
2019-01-23T12:25:27.104Z,149.57
2019-01-23T12:27:55.201Z,177.90
2019-01-23T12:30:41.550Z,171.60
2019-01-23T12:33:08.641Z,141.63
2019-01-23T12:35:35.374Z,134.30
2019-01-23T12:38:02.251Z,139.17
2019-01-23T12:40:29.025Z,163.43
2019-01-23T12:42:56.148Z,140.27
2019-01-23T12:45:24.980Z,185.73
2019-01-23T12:47:52.000Z,175.90
2019-01-23T12:51:00.997Z,189.30
2019-01-23T12:53:27.809Z,165.47
2019-01-23T12:55:54.548Z,200.93
2019-01-23T12:58:21.290Z,162.93
2019-01-23T13:00:48.080Z,163.90
2019-01-23T13:03:14.948Z,175.67
2019-01-23T13:05:41.850Z,167.60
2019-01-23T13:08:08.708Z,192.53
2019-01-23T13:10:36.156Z,178.77
2019-01-23T13:13:03.815Z,179.97
2019-01-23T13:15:30.736Z,174.50
2019-01-23T13:17:57.575Z,172.53
2019-01-23T13:20:24.637Z,164.63
2019-01-23T13:22:51.813Z,168.13
2019-01-23T13:25:20.695Z,181.00
2019-01-23T13:27:47.616Z,154.50
2019-01-23T13:30:17.068Z,175.07
2019-01-23T13:32:44.180Z,170.30
2019-01-23T13:35:31.776Z,167.23
2019-01-23T13:37:58.900Z,155.57
2019-01-23T13:40:28.832Z,178.63
2019-01-23T13:42:55.802Z,164.13
2019-01-23T13:45:22.872Z,168.83
2019-01-23T13:47:49.713Z,132.93
2019-01-23T13:50:16.782Z,148.50
2019-01-23T13:52:44.143Z,127.33
2019-01-23T13:55:11.893Z,132.50
2019-01-23T13:57:38.963Z,131.97
2019-01-23T14:00:47.856Z,113.70
2019-01-23T14:03:15.432Z,133.90
2019-01-23T14:05:42.304Z,135.20
2019-01-23T14:08:09.334Z,131.07
2019-01-23T14:10:36.337Z,128.40
2019-01-23T14:13:44.232Z,124.50
2019-01-23T14:16:11.658Z,108.20
2019-01-23T14:18:38.864Z,105.23
2019-01-23T14:21:05.910Z,105.53
2019-01-23T14:23:32.739Z,99.40
2019-01-23T14:25:59.618Z,87.40
2019-01-23T14:28:26.377Z,99.67
2019-01-23T14:30:53.201Z,97.37
2019-01-23T14:33:20.265Z,101.33
2019-01-23T14:35:47.090Z,94.40
2019-01-23T14:38:14.024Z,102.77
2019-01-23T14:40:41.196Z,97.50
2019-01-23T14:43:08.071Z,96.77
2019-01-23T14:45:35.051Z,92.40
2019-01-23T14:48:01.919Z,89.97
2019-01-23T14:50:29.050Z,89.97
2019-01-23T14:52:55.964Z,90.53
2019-01-23T14:55:22.814Z,98.03
2019-01-23T14:57:49.671Z,97.87
2019-01-23T15:00:37.573Z,81.37
2019-01-23T15:03:04.764Z,73.17
2019-01-23T15:05:31.752Z,76.13
2019-01-23T15:07:58.672Z,51.63
2019-01-23T15:10:27.063Z,78.33
2019-01-23T15:12:54.069Z,65.33
2019-01-23T15:15:21.107Z,87.83
2019-01-23T15:17:47.884Z,69.20
2019-01-23T15:20:57.230Z,77.23
2019-01-23T15:23:24.257Z,82.60
2019-01-23T15:25:51.107Z,81.90
2019-01-23T15:28:18.088Z,68.07
2019-01-23T15:30:44.936Z,75.97
2019-01-23T15:33:11.731Z,74.97
2019-01-23T15:35:38.637Z,76.37
2019-01-23T15:38:05.578Z,82.90
2019-01-23T15:40:34.792Z,77.90
2019-01-23T15:43:01.707Z,74.03
2019-01-23T15:45:28.465Z,74.77
2019-01-23T15:47:55.574Z,59.40
2019-01-23T15:50:23.751Z,63.50
2019-01-23T15:52:50.498Z,82.83
2019-01-23T15:55:58.862Z,55.23
2019-01-23T15:58:26.921Z,59.97
2019-01-23T16:00:58.400Z,67.33
2019-01-23T16:03:30.864Z,73.40
2019-01-23T16:05:57.770Z,69.00
2019-01-23T16:08:24.636Z,51.00
2019-01-23T16:11:04.160Z,54.30
2019-01-23T16:13:31.229Z,67.97
2019-01-23T16:15:57.979Z,51.97
2019-01-23T16:18:24.859Z,68.07
2019-01-23T16:20:51.616Z,72.70
2019-01-23T16:23:18.469Z,61.80
2019-01-23T16:25:45.539Z,67.03
2019-01-23T16:28:12.391Z,58.07
2019-01-23T16:30:39.247Z,66.73
2019-01-23T16:33:47.427Z,55.53
2019-01-23T16:36:14.237Z,57.57
2019-01-23T16:38:41.118Z,62.47
2019-01-23T16:41:08.417Z,63.27
2019-01-23T16:43:35.155Z,51.47
2019-01-23T16:46:01.892Z,51.17
2019-01-23T16:48:28.881Z,40.97
2019-01-23T16:50:55.616Z,49.70
2019-01-23T16:53:22.968Z,45.37
2019-01-23T16:55:50.400Z,48.00
2019-01-23T16:58:17.138Z,43.17
2019-01-23T17:00:43.875Z,44.57
2019-01-23T17:03:10.935Z,48.60
2019-01-23T17:05:37.715Z,56.43
2019-01-23T17:08:06.530Z,48.33
2019-01-23T17:10:33.422Z,49.23
2019-01-23T17:13:00.465Z,44.13
2019-01-23T17:15:27.294Z,51.37
2019-01-23T17:17:54.310Z,55.87
2019-01-23T17:20:43.796Z,54.77
2019-01-23T17:23:11.028Z,39.73
2019-01-23T17:25:38.025Z,54.63
2019-01-23T17:28:46.666Z,51.30
2019-01-23T17:31:13.575Z,45.13
2019-01-23T17:33:40.311Z,48.20
2019-01-23T17:36:07.279Z,42.00
2019-01-23T17:38:33.898Z,45.70
2019-01-23T17:41:00.638Z,47.00
2019-01-23T17:46:02.096Z,42.43
2019-01-23T17:48:28.956Z,43.27
2019-01-23T17:50:55.594Z,36.60
2019-01-23T17:53:22.461Z,36.20
2019-01-23T17:55:49.278Z,48.13
2019-01-23T17:58:16.131Z,43.40
2019-01-23T18:03:35.783Z,41.60
2019-01-23T18:06:02.746Z,42.30
2019-01-23T18:08:29.930Z,40.17
2019-01-23T18:10:56.988Z,32.00
2019-01-23T18:13:24.297Z,38.90
2019-01-23T18:15:51.849Z,36.50
2019-01-23T18:18:19.008Z,40.60
2019-01-23T18:20:45.901Z,49.50
2019-01-23T18:23:12.694Z,47.33
2019-01-23T18:25:39.573Z,48.57
2019-01-23T18:28:06.613Z,45.77
2019-01-23T18:30:37.324Z,48.57
2019-01-23T18:33:05.798Z,44.10
2019-01-23T18:35:59.008Z,33.07
2019-01-23T18:38:51.729Z,43.60
2019-01-23T18:41:57.854Z,46.00
2019-01-23T18:44:42.789Z,43.43
2019-01-23T18:47:48.715Z,40.03
2019-01-23T18:50:41.638Z,49.07
2019-01-23T18:53:08.445Z,35.57
2019-01-23T18:55:35.189Z,36.73
2019-01-23T18:58:02.902Z,31.60
2019-01-23T19:00:29.992Z,48.83
2019-01-23T19:02:56.833Z,52.23
2019-01-23T19:05:23.562Z,53.47
2019-01-23T19:07:50.356Z,43.83
2019-01-23T19:10:58.408Z,31.90
2019-01-23T19:13:25.747Z,68.07
2019-01-23T19:15:52.751Z,49.03
2019-01-23T19:18:19.843Z,41.13
2019-01-23T19:20:46.925Z,41.97
2019-01-23T19:23:13.694Z,46.87
2019-01-23T19:25:40.469Z,43.03
2019-01-23T19:28:07.723Z,51.63
2019-01-23T19:30:34.561Z,44.50
2019-01-23T19:33:01.289Z,50.23
2019-01-23T19:35:28.052Z,41.13
2019-01-23T19:37:54.785Z,51.70
2019-01-23T19:40:21.523Z,48.17
2019-01-23T19:42:48.319Z,43.00
2019-01-23T19:45:19.757Z,45.30
2019-01-23T19:47:46.784Z,50.43
2019-01-23T19:50:13.715Z,49.00
2019-01-23T19:52:40.551Z,49.33
2019-01-23T19:55:08.964Z,41.67
2019-01-23T19:57:36.229Z,41.20
2019-01-23T20:00:44.184Z,45.67
2019-01-23T20:03:11.100Z,49.83
2019-01-23T20:05:38.341Z,45.17
2019-01-23T20:08:05.164Z,48.40
2019-01-23T20:10:32.201Z,48.57
2019-01-23T20:12:59.081Z,45.17
2019-01-23T20:15:25.841Z,50.60
2019-01-23T20:17:56.270Z,50.80
2019-01-23T20:20:23.226Z,50.77
2019-01-23T20:22:50.001Z,46.97
2019-01-23T20:25:19.483Z,45.27
2019-01-23T20:27:46.363Z,50.23
2019-01-23T20:30:25.857Z,49.63
2019-01-23T20:32:52.742Z,57.97
2019-01-23T20:35:19.911Z,51.10
2019-01-23T20:37:46.908Z,49.37
2019-01-23T20:40:13.796Z,53.03
2019-01-23T20:42:40.597Z,54.50
2019-01-23T20:45:10.174Z,50.83
2019-01-23T20:47:37.090Z,52.23
2019-01-23T20:50:06.951Z,51.07
2019-01-23T20:52:34.267Z,49.93
2019-01-23T20:55:01.041Z,48.67
2019-01-23T20:57:27.908Z,50.37
2019-01-23T21:00:15.571Z,49.07
2019-01-23T21:02:42.305Z,48.07
2019-01-23T21:05:28.991Z,54.97
2019-01-23T21:07:56.313Z,51.83
2019-01-23T21:10:42.806Z,52.33
2019-01-23T21:13:09.679Z,54.10
2019-01-23T21:15:36.487Z,51.33
2019-01-23T21:18:45.364Z,51.60
2019-01-23T21:21:12.296Z,47.03
2019-01-23T21:23:58.727Z,48.97
2019-01-23T21:26:25.774Z,52.87
2019-01-23T21:28:52.506Z,52.77
2019-01-23T21:31:39.018Z,49.80
2019-01-23T21:34:25.282Z,49.10
2019-01-23T21:37:11.703Z,49.20
2019-01-23T21:39:58.088Z,49.63
2019-01-23T21:42:24.891Z,46.07
2019-01-23T21:44:52.034Z,45.13
2019-01-23T21:47:19.085Z,51.47
2019-01-23T21:49:45.889Z,48.63
2019-01-23T21:52:32.260Z,50.60
2019-01-23T21:54:59.362Z,54.77
2019-01-23T21:57:45.717Z,47.97
2019-01-23T22:00:16.403Z,46.93
2019-01-23T22:03:02.991Z,47.33
2019-01-23T22:05:30.672Z,46.20
2019-01-23T22:07:57.603Z,49.07
2019-01-23T22:10:24.342Z,47.83
2019-01-23T22:13:10.758Z,50.53
2019-01-23T22:15:37.490Z,52.10
2019-01-23T22:18:24.389Z,46.43
2019-01-23T22:21:10.800Z,50.93
2019-01-23T22:23:50.732Z,48.77
2019-01-23T22:26:17.496Z,43.70
2019-01-23T22:28:44.281Z,40.87
2019-01-23T22:31:11.325Z,47.40
2019-01-23T22:33:57.589Z,52.63
2019-01-23T22:36:43.932Z,50.60
2019-01-23T22:39:10.673Z,54.70
2019-01-23T22:41:37.416Z,44.77
2019-01-23T22:44:04.390Z,48.90
2019-01-23T22:46:50.754Z,50.50
2019-01-23T22:49:17.882Z,39.27
2019-01-23T22:52:04.246Z,50.33
2019-01-23T22:54:50.811Z,46.80
2019-01-23T22:57:37.175Z,45.77
2019-01-23T23:00:25.196Z,45.83
2019-01-23T23:02:52.589Z,49.53
2019-01-23T23:05:19.331Z,42.87
2019-01-23T23:07:46.190Z,41.73
2019-01-23T23:10:13.130Z,44.00
2019-01-23T23:12:39.867Z,43.77
2019-01-23T23:15:48.077Z,45.97
2019-01-23T23:18:14.815Z,42.10
2019-01-23T23:20:41.558Z,41.20
2019-01-23T23:23:28.118Z,44.93
2019-01-23T23:25:54.953Z,38.77
2019-01-23T23:28:34.830Z,47.70
2019-01-23T23:31:13.920Z,40.80
2019-01-23T23:33:41.279Z,40.43
2019-01-23T23:36:08.254Z,41.40
2019-01-23T23:38:34.997Z,42.17
2019-01-23T23:41:01.839Z,42.63
2019-01-23T23:43:28.721Z,35.63
2019-01-23T23:45:55.962Z,41.00
2019-01-23T23:48:42.456Z,36.40
2019-01-23T23:51:28.811Z,41.83
2019-01-23T23:53:55.736Z,40.40
2019-01-23T23:56:22.475Z,40.00
2019-01-23T23:58:49.202Z,39.77
